Terminal Aerodrome Forecast
Issued by NWS Binghamton, NY

Home | Current Version | Previous Version | Text Only | Print | Product List | Glossary On
Versions: 1 2 3 4 5 6 7 8 9 10 11 12 13 14 15 16 17 18 19 20 21 22 23 24 25 26
000
FTUS41 KBGM 032300
TAFBGM
TAF
KBGM 032322Z 0400/0424 17015G25KT 3SM -PL BR SCT015 OVC025
      TEMPO 0401/0404 2SM -FZRAPL BR OVC015
     FM040400 23008KT P6SM OVC012
     FM040900 28010KT P6SM OVC015
     FM041400 28012G22KT P6SM SCT015 OVC025=

USA.gov is the U.S. government's official web portal to all federal, state and local government web resources and services.